Member area
Imprimable
Torhout, 17/06/2016, BEL - Nacht van Vlaanderen
List of reports > Half Marathon - Result
Search: Page: [1] 2
566 Entries
 
Complains are not accepted anymore. Results are final.
Category
PosNrNameAgeNATTeamRealTimeTkmMoy.PlaceNameCity
1.1698COLPAERT Frederick40BEL1:10:181:10:183:20 18.011m35
2.1255MOERMAN Karel33BELMACW - MARATHON1:11:321:11:323:24 17.701senDIKSMUIDE
3.1040BULTINCK Jimmy38BELAVMO - ATLETIEK1:12:351:12:353:27 17.442m35AARTRIJKE
4.1344VAN GEYTE Gino49BEL1:12:501:12:503:28 17.381m45ZWIJNAARDE
5.1121DEPOORTERE Dries31BELAVR - ATLETIEK 1:13:171:13:173:29 17.272senROESELARE
6.1314STESSENS Tim34BELSACN - SPORTING1:13:531:13:533:31 17.143senNEERPELT
7.1629MARK Jorissen50BEL1:15:211:15:213:35 16.801m50
8.1256MOEYAERT Joris36BEL1:15:361:15:363:35 16.743m35LANGEMARK
9.1656VERSTRAETE Didier49BEL1:15:451:15:453:36 16.712m45
10.1077DE CALUWE Cedric41BELABAV - ALGEMENE1:15:561:15:563:36 16.671m40SINT-ANDRIES
11.1665GUELTON Gaetan30BEL1:16:061:16:063:37 16.644sen
12.1602VERBEKE Bart36BEL1:18:101:18:103:43 16.194m35
13.1672LUTTUN Evert41BEL1:18:261:18:263:44 16.142m40
14.1332VAN CAUWENBERGHE Filip48BELABAV - ALGEMENE1:18:351:18:353:44 16.113m45WINGENE
15.1124DEROUS Stefaan50BELBEHO - BEVERHOU1:18:491:18:493:45 16.064m45BRUGGE
16.1224LIBBRECHT Niels45BELABAV - ALGEMENE1:19:251:19:253:46 15.943m40HERTSBERGE
17.1073DE BLAUWE Serge47BELHAC - HOUTLAND 1:19:541:19:543:48 15.855m45TORHOUT
18.1087DE SMET Kristof41BELACG - ATLETIEK 1:19:561:19:563:48 15.844m40ZOTTEGEM
19.1673RENS Jeremy21BEL1:20:151:20:153:49 15.775sen
20.1647GOESAERT Jan43BEL1:20:201:20:203:49 15.765m40
21.1611VANDENABEELE David41BEL1:20:221:20:223:49 15.756m40
22.1242MATTHEUS Pieter30BELAZ SINT-REMBERT1:20:481:20:483:50 15.676senTORHOUT
23.1393VANHEE Tom42BELBEHO - BEVERHOU1:21:101:21:103:51 15.607m40BEERNEM
24.1451WILLE Angelo46BELCACE1:21:251:21:253:52 15.556m45BRUSSEL
25.1637NR 1637 XXX1:21:411:21:413:53 15.501xxx
26.1158DUYNSLAEGER Vic29BEL1:21:491:21:493:53 15.477senARDOOIE
27.1291ROYAERT Geert46BELAVMO - ATLETIEK1:21:581:21:583:54 15.457m45TIELT
28.1006ALLEGAERT Nicolai26BEL1:22:141:22:143:54 15.398senBREDENE
29.1305SEYS Pieter36BEL1:22:191:22:193:55 15.385m35ZWEVEZELE
30.1690BAERT Stefaan39BEL1:22:371:22:373:55 15.326m35
31.1280PUYSTJENS Gino33BELHCO - HERMES AT1:22:431:22:433:56 15.309senLOMBARDSIJDE
32.1283RECOUR Nico42BELBEHO - BEVERHOU1:22:581:22:583:56 15.268m40LOTENHULLE
33.1441VOERMANS Leo39BEL1:23:061:23:063:57 15.237m35HOLLEBEKE
34.1674VALLE Kurt35BEL1:23:331:23:333:58 15.158m35
35.1412VERGOTTE Christophe49BELKAAG - ATLETIEK1:23:341:23:343:58 15.158m45DRONGEN
36.1012BAES Kristof42BELFLAC - FLANDERS1:23:341:23:343:58 15.159m40POPERINGE
37.1257MOEYAERT Jerry51BELROAD RUNNERS TO1:24:201:24:204:00 15.012m50TORHOUT
38.1340VAN DEN EYNDE Kris51BEL1:24:231:24:234:00 15.003m50ALSEMBERG
39.1347VAN HOLLEBEKE Jan Gaston Maurice40BELBEHO - BEVERHOU1:24:291:24:294:01 14.9810m40OOSTKAMP
40.1205KETELS Jens25BELCNH INDUSTRIAL 1:24:351:24:354:01 14.9710senGISTEL
41.1067COULON Dominique48BELABMARKE1:24:471:24:474:02 14.939m45BELLEGEM
42.1316STIENS Hans54BELOEH - ATLETIEKC1:24:491:24:494:02 14.934m50HALLE
43.167SCHAELE Dirk50BELRCG - RACING CL1:25:151:25:154:03 14.855m50MELLE
44.1664NAERT Lode35BEL1:25:511:25:514:05 14.7511sen
45.1109FDEKETELAERE Annelies30BELHAC - HOUTLAND 1:26:021:26:024:05 14.711damHOOGLEDE
46.1403VANSTEENKISTE Emmanuel39BEL1:26:071:26:074:05 14.709m35ROESELARE
47.1274POLLEFEYT Jeroen32BELHAC - HOUTLAND 1:26:231:26:234:06 14.6512senTORHOUT
48.1605DEPRAETERE Koen41BEL1:26:341:26:344:07 14.6211m40
49.1386VANDEVOORDE Pascal49BEL1:26:481:26:484:07 14.5810m45WERVIK
50.1128DESNOUCK Ben36BEL1:26:491:26:494:07 14.5810m35KORTRIJK
51.1230LOUAGE Bram29BEL1:27:501:27:504:10 14.4113senGELUWE
52.1103DECORTE Patrick56BELROAD RUNNERS TO1:27:571:27:574:11 14.391m55KOEKELARE
53.1322TEMPELAERE Pascal26BELAZ SINT-REMBERT1:28:041:28:044:11 14.3814senTORHOUT
54.1102DECOENE Henk47BELFLAC - FLANDERS1:28:181:28:184:12 14.3411m45POPERINGE
55.1193HOORNAERT Tom47BELABAV - ALGEMENE1:28:441:28:444:13 14.2712m45RUMBEKE
56.1007FAMELOOT Sylvie37BELMACW - MARATHON1:28:491:28:494:13 14.251v35BAARDEGEM
57.1389VANDOORN Winny47BELBEHO - BEVERHOU1:29:021:29:024:14 14.2213m45WINGENE
58.1141DEWISPELAERE Diederik32BEL1:29:081:29:084:14 14.2015senASSEBROEK
59.1271PIERRE Frédéric44BEL1:29:111:29:114:14 14.1912m40RAMILLIES
60.1429VERSPEELT Fritz49BEL1:29:221:29:224:15 14.1714m45BELLEGEM
61.1566GRAULUS Jeremy38BEL1:29:391:29:394:15 14.1211m35
62.4HEEMSKERK Steven38BELATLA - ATLETIEK1:29:421:29:424:16 14.1112m35GENK
63.1289ROSSEEL Paul53BEL1:29:441:29:444:16 14.116m50VEURNE
64.1295SAINT GERMAIN Davy35BEL1:29:491:29:494:16 14.0913m35HOUTHULST
65.1026BOSTYN Steven43BEL1:29:551:29:554:16 14.0813m40ZONNEBEKE
66.1597MESTDAGH Tony58BEL1:30:001:30:004:16 14.072m55
67.1278PORREYE Pascal49BEL1:30:001:30:004:16 14.0715m45OOSTVLETEREN
68.1009AMEYS Brian48BELFLAC - FLANDERS1:30:001:30:004:16 14.0716m45POPERINGE
69.1432VERSTRAETE Dries32BELROAD RUNNERS TO1:30:031:30:034:17 14.0616senZERKEGEM
70.1056CHRISTIAENS Michel44BEL1:30:061:30:064:17 14.0514m40EERNEGEM
71.3DE VULDER Stijn34BELACG - ATLETIEK 1:30:061:30:064:17 14.0517senGERAARDSBERGEN
72.1288ROMMELAERE Marc40BEL1:30:131:30:134:17 14.0315m40OUDENBURG
73.1644FDEBLAUWE Eveline37BEL1:30:141:30:144:17 14.032v35
74.415DHONT Dieter27BEL1:30:201:30:204:17 14.0118sen
75.1202JOSEPH Gert-Jan30BEL1:30:271:30:274:18 14.0019senTORHOUT
76.1356VAN SPEYBROECK Maurice59BEL1:30:331:30:334:18 13.983m55ERTVELDE
77.1201JONCKHEERE Eddy49BEL1:30:341:30:344:18 13.9817m45BREDENE
78.1630NR 1630 XXX1:30:541:30:544:19 13.932xxx
79.1179GROENWEGHE Philippe57BELCM1:30:581:30:584:19 13.924m55KORTRIJK
80.1652VERSTRAETE Henk44BEL1:31:051:31:054:20 13.9016m40
81.1562MATTELE Emmanuel49BEL1:31:211:31:214:20 13.8618m45
82.1421FVERMEULEN Isabel47BELABMARKE1:31:211:31:214:20 13.861v45BELLEGEM
83.1371VANDEKERCKHOVE Serge46BELHAC - HOUTLAND 1:31:341:31:344:21 13.8319m45TORHOUT
84.1408VERBEKE Pieter33BELFLAC - FLANDERS1:31:351:31:354:21 13.8220senPOPERINGE
85.1142DEWITTE Angelo36BEL1:31:581:31:584:22 13.7714m35POELKAPELLE
86.1148DONCK Sebastiaan32BEL1:31:591:31:594:22 13.7621senRUMBEKE
87.1131DEVLAMINCK Luk48BELAVMO - ATLETIEK1:31:591:31:594:22 13.7620m45TIELT
88.1557COGHE Klaas29BEL1:32:161:32:164:23 13.7222sen
89.1416VERKRUYSSE Geert52BELFLAC - FLANDERS1:32:311:32:314:24 13.687m50WATOU
90.1172GIUSTI Roberto51BEL1:32:311:32:314:24 13.688m50WESTKAPELLE
91.1640FCLAERBOUT Peggy45BEL1:32:491:32:494:24 13.641v40
92.1379VANDENBUSSCHE Davy36BELZ-RUNNERS1:32:501:32:504:24 13.6415m35LANGEMARK
93.1320SYOEN Frank45BEL1:33:141:33:144:26 13.5817m40ZARREN
94.1198JACXSENS Luk56BEL1:33:151:33:154:26 13.575m55VARSENARE
95.1431VERSTRAETE Stany43BELCNH INDUSTRIAL 1:33:261:33:264:26 13.5518m40EERNEGEM
96.1076DE BRUYNE Pieter30BEL1:33:271:33:274:26 13.5523senASSENEDE
97.1259MORLION Lode51BELLC DE STRESSKIK1:33:291:33:294:26 13.549m50IEPER
98.1686WITDOUCK Jan39BEL1:33:391:33:394:27 13.5216m35
99.1066COSYNS Lode36BEL1:33:391:33:394:27 13.5217m35TORHOUT
100.1436VIAENE Brecht38BEL1:33:591:33:594:28 13.4718m35MENEN
101.1335VAN DE VELDE Dimitri36BELSNA WELLE1:33:591:33:594:28 13.4719m35SINT-MARIA-LIERDE
102.1246MESTDAGH David41BELCM1:33:591:33:594:28 13.4719m40SINT-MICHIELS
103.1405VANWYMELBEKE Tim24BEL1:34:011:34:014:28 13.4724senHEULE
104.1120DEPOORTER Christoph47BELROAD RUNNERS TO1:34:021:34:024:28 13.4621m45TORHOUT
105.1082DE LANGE Patrick51BELASVO - ATLETIEK1:34:031:34:034:28 13.4610m50BRAKEL
106.1657VAN DE POEL Peter Jan49BEL1:34:061:34:064:28 13.4522m45
107.1410FVERDONCKT Greet43BELASVO - ATLETIEK1:34:081:34:084:28 13.452v40OUDENAARDE
108.1418VERLINDE Stefaan45BELTEMPO KOEKELARE1:34:081:34:084:28 13.4520m40KOEKELARE
109.1334VAN COSTER Tim32BELASVO - ATLETIEK1:34:141:34:144:28 13.4325senKLUISBERGEN
110.1292RYCKEBOER Noël50BELFLAC - FLANDERS1:34:181:34:184:29 13.4211m50PO
111.1264NOPPE Jonas33BEL1:34:211:34:214:29 13.4226senIZEGEM
112.1399VANMASSENHOVE Tiyani19BELCNH INDUSTRIAL 1:34:221:34:224:29 13.4127senAARTRIJKE
113.1207LAEREMANS Jimmy29BEL1:34:321:34:324:29 13.3928senLANGDORP
114.1050FCAPPON Liesbeth38BELROAD RUNNERS TO1:34:361:34:364:30 13.383v35TORHOUT
115.1391VANHAESEBROUCK Jan40BEL1:34:401:34:404:30 13.3721m40HEUSDEN
116.1428NR1428 Nr1428BEL1:34:481:34:484:30 13.353xxxHOEILAART
117.1409VERBRUGGE Stefan49BELAVR - ATLETIEK 1:34:501:34:504:30 13.3523m45ROESELARE
118.1680GOUWY Davy31BEL1:34:541:34:544:30 13.3429sen
119.1160FEECLOO Lieze25BEL1:35:021:35:024:31 13.322damLICHTERVELDE
120.1036BRUYNSTEEN Kurt47BELMULDER NATURAL 1:35:051:35:054:31 13.3124m45LANGEMARK
121.1380VANDENBUSSCHE Steven42BELCM1:35:271:35:274:32 13.2622m40VLAMERTINGE
122.1248MINNEBO Miguel42BELAZW - ATLETIEK 1:35:301:35:304:32 13.2623m40ZWEVEGEM
123.1075DE BRUYNE Lode42BEL1:35:381:35:384:32 13.2424m40KOKSIJDE
124.1010AMPE Carlo45BEL1:35:451:35:454:33 13.2225m45HOOGLEDE - GITS
125.1299SCHRAUWEN Hans48BELROAD RUNNERS TO1:35:471:35:474:33 13.2226m45RUDDERVOORDE
126.1638NR 1638 XXX1:35:511:35:514:33 13.214xxx
127.1426VERSCHAEVE Bart41BELAVMO - ATLETIEK1:35:581:35:584:33 13.1925m40LICHTERVELDE
128.1150DUBOIS Björn39BEL1:36:021:36:024:34 13.1820m35ASSEBROEK
129.1058CLEENWERCK Dieter35BELAVMO - ATLETIEK1:36:071:36:074:34 13.1721m35WINGENE
130.1301SERGIER Valentijn28BEL1:36:081:36:084:34 13.1730senIEPER
131.1216LEERS Martijn23BEL1:36:121:36:124:34 13.1631senOEDELEM
132.1666VAN ASSCHE Yoerik39BEL1:36:311:36:314:35 13.1222m35
133.1284REMACLE Nicolas32BEL1:36:381:36:384:35 13.1032senLEDE
134.1668VAN HULLE Kristof42BEL1:36:411:36:414:35 13.0926m40
135.1294SAINT GERMAIN Dries37BEL1:36:501:36:504:36 13.0723m35HOUTHULST
136.1185HEENS Thijs37BEL1:36:501:36:504:36 13.0724m35HOUTHULST
137.1057CLAEYS Jens25BEL1:36:541:36:544:36 13.0633senKOEKELARE
138.1599DE MEULENAERE Rik52BEL1:36:541:36:544:36 13.0612m50
139.1078DE GENDT Johan37BEL1:37:011:37:014:36 13.0525m35NIEUWKERKEN WAAS
140.1300SERCU Filiep53BEL1:37:021:37:024:36 13.0513m50HEULE
141.1319SURMONT Miguel44BEL1:37:031:37:034:36 13.0427m40BREDENE
142.1096DECANCQ Tatian43BELAVR - ATLETIEK 1:37:041:37:044:37 13.0428m40ROESELARE
143.1035BRUNEEL Tom44BELAVR - ATLETIEK 1:37:041:37:044:37 13.0429m40RUMBEKE
144.1079DE GRAEVE Arne20BEL1:37:301:37:304:38 12.9834senAALTER
145.1654NR 1654 XXX1:37:331:37:334:38 12.985xxx
146.1298SCHRAUWEN Dominiek60BELROAD RUNNERS TO1:37:371:37:374:38 12.976m55RUDDERVOORDE
147.1297FSCHRAUWEN Lien35BELROAD RUNNERS TO1:37:371:37:374:38 12.973damRUDDERVOORDE
148.1317STROBBE Bavo36BEL1:37:421:37:424:38 12.9626m35ERPE-MERE
149.1116DENOLF Milan17BEL1:37:441:37:444:38 12.9535senOUDENBURG
150.1174GODDYN Wim44BELABMARKE1:37:461:37:464:39 12.9530m40MARKE
151.1033FBROECKMANS Valerie46BELABMARKE1:38:221:38:224:40 12.872v45AALBEKE
152.1310STEEN Vital44BELPROVINCIE W-VL1:38:241:38:244:40 12.8731m40BREDENE
153.1667VANDENHEEDE Kris41BEL1:38:461:38:464:41 12.8232m40
154.1249FMISPELAERE Marieke24BEL1:38:521:38:524:42 12.814damWEVELGEM
155.1219LERNOUT Jan43BEL1:39:011:39:014:42 12.7933m40ROESELARE
156.1309SPIESSENS Davy33BEL1:39:091:39:094:42 12.7736senARDOOIE
157.1377VANDENBRUWAENE Marc51BELCM1:39:121:39:124:43 12.7614m50TORHOUT
158.1315STEVENS Bart32BELCNH INDUSTRIAL 1:39:191:39:194:43 12.7537senZWEVEZELE
159.1261MOYAERT Johan42BELAVMO - ATLETIEK1:39:331:39:334:44 12.7234m40DENTERGEM
160.1144D'HALLUIN Tom34BEL1:39:341:39:344:44 12.7138senOOSTROZEBEKE
161.1223LEYS Bart44BEL1:39:431:39:434:44 12.7035m40POPERINGE
162.1579KNOCKAERT Filip49BEL1:39:461:39:464:44 12.6927m45
163.1381VANDENDRIESSCHE Bart51BEL1:39:531:39:534:45 12.6715m50KUURNE
164.1221FLEYRE Erna53BEL1:39:541:39:544:45 12.671v50OOSTENDE
165.1352VAN MIEGHEM Luc54BEL1:39:591:39:594:45 12.6616m50TELLIN
166.1659VACKIER Pol50BEL1:40:061:40:064:45 12.6528m45
167.1591FANDRIES Katrien39BEL1:40:101:40:104:45 12.644v35
168.1411VEREENOOGHE Steven46BEL1:40:111:40:114:45 12.6429m45TORHOUT
169.1452WITDOUCK Andy42BEL1:40:161:40:164:46 12.6336m40WEVELGEM
170.1375VANDENBERGHE Peter48BEL1:40:261:40:264:46 12.6030m45TORHOUT
171.1098DECLERCK Jorkin25BELBUBBLEFUN1:40:321:40:324:46 12.5939senVEURNE
172.1277FPOLLET Liese26BEL1:40:361:40:364:47 12.585damLICHTERVELDE
173.1055CHRISTIAEN Kris31BEL1:40:411:40:414:47 12.5740senRUDDERVOORDE
174.1192HOORELBEKE Kinzhy29BEL1:40:431:40:434:47 12.5741senGITS
175.1434VERVISCH Simon33BEL1:40:441:40:444:47 12.5742senRUDDERVOORDE
176.1355VAN REYBROUCK Filip41BELBEHO - BEVERHOU1:41:021:41:024:48 12.5337m40AALTER
177.1552VERHULST Steven32BEL1:41:151:41:154:48 12.5043sen
178.1419VERLINDEN Gert40BELINFRAX1:41:171:41:174:49 12.5038m40DUFFEL
179.1152DUFOORT Geert45BELINFRAX1:41:191:41:194:49 12.4939m40OOSTKAMP
180.1153DUHAMEL Koen42BEL1:41:281:41:284:49 12.4840m40WEVELGEM
181.1658MOERENHOUT Pierre45BEL1:41:281:41:284:49 12.4841m40
182.1691DE COSTER Bart47BEL1:41:291:41:294:49 12.4731m45
183.1338VAN DE WALLE Pascal50BELROAD RUNNERS TO1:41:321:41:324:49 12.4717m50WINGENE
184.1059FCLEPPE Tanja43BELBEHO - BEVERHOU1:41:381:41:384:50 12.463v40BRUGGE
185.1590FDE KOCK Pascal48BEL1:41:381:41:384:50 12.463v45
186.1558VANHEUL Reinaert20BEL1:41:381:41:384:50 12.4644sen
187.1139DEWAELE Tom38BEL1:41:521:41:524:50 12.4327m35VELDEGEM
188.1303SERRY Bart35BEL1:42:051:42:054:51 12.4028m35GENT
189.1068COUSSENS Davy35BELCM1:42:091:42:094:51 12.3945senLICHTERVELDE
190.1555BRAECKEVELT Niels27BEL1:42:101:42:104:51 12.3946sen
191.1559GHESQUERE Filip54BEL1:42:131:42:134:51 12.3818m50
192.1046FCALLEWAERT Sissi35BELCM1:42:141:42:144:51 12.386damTORHOUT
193.1154DUPONT Thierry48BEL1:42:231:42:234:52 12.3732m45WINGENE
194.1700VANHOVE Dierk55BEL1:42:251:42:254:52 12.367m55
195.1621OOSTHUYSE Miel22BEL1:42:401:42:404:52 12.3347sen
196.1655PERNEEL Frederick43BEL1:42:491:42:494:53 12.3142m40
197.1038FBULCKE Katleen40BELMACW - MARATHON1:42:501:42:504:53 12.315v35DIKSMUIDE
198.1676UTEN Ludo51BEL1:42:501:42:504:53 12.3119m50
199.1577DELBEKE Matthias33BEL1:42:561:42:564:53 12.3048sen
200.1439VLAEMINCK Marc50BELROAD RUNNERS TO1:42:581:42:584:53 12.2920m50RUDDERVOORDE
201.1427VERSCHEURE Renaud28BELAVR - ATLETIEK 1:43:011:43:014:53 12.2949senMEULEBEKE
202.1237MAES Wim39BEL1:43:041:43:044:54 12.2829m35LOMBARDSIJDE
203.1653BOLDENS Mario41BEL1:43:101:43:104:54 12.2743m40
204.1376VANDENBERGHE Patje50BELCNH INDUSTRIAL 1:43:121:43:124:54 12.2733m45BEKEGEM
205.1588GHESQUIERE Thomas25BEL1:43:121:43:124:54 12.2750sen
206.1615NAERT Filip58BEL1:43:121:43:124:54 12.278m55
207.1225LIBEER Roeland49BEL1:43:231:43:234:55 12.2434m45WEVELGEM
208.1227LONCKE Marnix48BEL1:43:241:43:244:55 12.2435m45OEKENE
209.1678CLAUS Lieven44BEL1:43:251:43:254:55 12.2444m40
210.1245MERGAERT Brachim27BEL1:43:321:43:324:55 12.2351senHARELBEKE
211.1110DELERUE Stefaan54BELFLAC - FLANDERS1:43:361:43:364:55 12.2221m50ALVERINGEM
212.1311STEENKISTE Nicolas35BEL1:44:001:44:004:56 12.1752senVELDEGEM
213.1694CAILLIEZ Pieter35BEL1:44:071:44:074:57 12.1653sen
214.1378VANDENBULCKE Steven40BEL1:44:131:44:134:57 12.1530m35BEVEREN-LEIE
215.1208LAGAUW Dirk54BELCNH INDUSTRIAL 1:44:161:44:164:57 12.1422m50AARTRIJKE
216.1262NEIRYNCK Frederik35BELTE CONNECTIVITY1:44:231:44:234:57 12.1354senTORHOUT
217.1661DEVINCK Tom24BEL1:44:511:44:514:59 12.0755senVEURNE
218.1662STANDAERT Dennis34BEL1:44:531:44:534:59 12.0756senKOEKELARE
219.1438FVIEREN Kristel52BEL1:44:531:44:534:59 12.072v50HOOGSTADE
220.1606DEBURGHGRAEVE Steven38BEL1:45:021:45:024:59 12.0531m35
221.1607DEBURGHGRAEVE Bjorn42BEL1:45:041:45:044:59 12.0545m40
222.1331VAN BREUSEGEM Pascal52BEL1:45:151:45:155:00 12.0323m50GIJZENZELE
223.1372VANDEKERCKHOVE Andy45BEL1:45:161:45:165:00 12.0346m40AARTRIJKE
224.1618VAN HOORENWEDER Jan46BEL1:45:171:45:175:00 12.0236m45
225.1619BONTE Jan44BEL1:45:171:45:175:00 12.0247m40
226.1051CARPENTIER Michel50BELROAD RUNNERS TO1:45:501:45:505:01 11.9624m50LICHTERVELDE
227.1683FCLAES Karen29BEL1:45:551:45:555:02 11.957dam
228.1669VANNESTE Filip48BEL1:46:001:46:005:02 11.9437m45
229.1620VAN DE GAER Johan56BEL1:46:021:46:025:02 11.949m55
230.1005AERNOUT Henk44BEL1:46:111:46:115:02 11.9248m40POPERINGE
231.1217LEIRE Mike40BEL1:46:211:46:215:03 11.9049m40IEPER
232.1424VERMEULEN Filip42BELLOKOMOTIEF-RUNN1:46:231:46:235:03 11.9050m40ZONNEBEKE
233.1339VAN DEN BOSSCHE David37BEL1:46:241:46:245:03 11.9032m35ZONNEBEKE
234.1032BROCHE Mattias29BEL1:46:421:46:425:04 11.8657senWINGENE
235.1553DESWAEF Lennart17BEL1:46:491:46:495:04 11.8558sen
236.1346VAN HAVER Eric55BEL1:46:521:46:525:04 11.8525m50ZUIENKERKE
237.1167GEERAERT Ronald47BEL1:47:111:47:115:05 11.8138m45LOMBARDSIJDE
238.1118DEPICKERE Bram26BEL1:47:121:47:125:05 11.8159senBRUGGE
239.1028FBOUDDIN Delphine38BELROAD RUNNERS TO1:47:151:47:155:05 11.806v35LICHTERVELDE
240.1604FVANDEWALLE Veronique39BEL1:47:161:47:165:06 11.807v35
241.1400VANMEERHAEGHE Kevin31BEL1:47:281:47:285:06 11.7860senBEVEREN-LEIE
242.1053CELIS Dirk33BELCM1:47:381:47:385:07 11.7661senOOSTENDE
243.1450WESTERLINCK Stefaan38BEL1:48:031:48:035:08 11.7233m35KORTRIJK
244.1253FMOERMAN Silke25BEL1:48:031:48:035:08 11.728damASSEBROEK
245.1092DEBEUF Francky51BELROAD RUNNERS TO1:48:181:48:185:08 11.6926m50LICHTERVELDE
246.1115DEMSEDT David28BELMISTPLONVRIENDE1:48:211:48:215:09 11.6862senICHTEGEM
247.1177GOETHALS Jürgen41BEL1:48:281:48:285:09 11.6751m40KACHTEM
248.1610MISSAULT Bruno45BEL1:48:351:48:355:09 11.6639m45
249.1140FDEWILDER Nicole55BELACKO - ATLETIEK1:48:511:48:515:10 11.633v50VOSSEM
250.1681GOUWY Jordy28BEL1:48:511:48:515:10 11.6363sen
251.1126DESIMPEL Bernard56BELPRESTO1:48:551:48:555:10 11.6210m55ICHTEGEM
252.1159EECKLOO Olivier37BEL1:48:561:48:565:10 11.6234m35BREDENE
253.1425VERNAILLEN Bart41BEL1:48:561:48:565:10 11.6252m40JABBEKE
254.1214LAVENS Christoph37BEL1:48:561:48:565:10 11.6235m35VARSENARE
255.1003FACOU Katrien42BELPROVINCIE W-VL1:48:571:48:575:10 11.624v40ASSEBROEK
256.1370VANDECASTEELE Frederik40BEL1:48:571:48:575:10 11.6236m35OOSTENDE
257.1318STROOBANT Nico43BELZ-RUNNERS ZARRE1:48:591:48:595:10 11.6253m40KORTEMARK
258.1401VANNESTE Gert-Jan27BELDOCRS1:49:001:49:005:10 11.6164senZEEBRUGGE
259.1350FVAN LOON Ria73NLDAVVN1:49:031:49:035:11 11.611v70DELFGAUW
260.1164FARINACCIO Gianfranco38ITAPOLISPORTIVA GI1:49:121:49:125:11 11.5937m35GILDONE
261.1203FKERCKHOVE Dany66BELHCO - HERMES AT1:49:161:49:165:11 11.581v65DE HAAN
262.1111DELFORCE Steven34BEL1:49:171:49:175:11 11.5865senDEERLIJK
263.1083DE LANNOY Wim54BEL1:49:191:49:195:11 11.5827m50AALTER
264.1220LEROY Andy27BEL1:49:201:49:205:11 11.5866senGOOIK
265.1387VANDEWIELE Tom46BEL1:49:211:49:215:11 11.5840m45ST-ANDRIES
266.1639VANDEWIELE Bruno52BEL1:49:211:49:215:11 11.5828m50
267.1608ROGIER Martin52BEL1:49:241:49:245:12 11.5729m50
268.1684FSTEELANDT Cathy33BEL1:49:251:49:255:12 11.579dam
269.1442WACKENIER Koen21BEL1:49:301:49:305:12 11.5667senHOOGLEDE
270.1556GORIS Bert36BEL1:49:331:49:335:12 11.5638m35
271.1589ADRIANSENS Ruben41BEL1:49:341:49:345:12 11.5554m40
272.1191HOLLEVOET Willy60BELCNH INDUSTRIAL 1:49:361:49:365:12 11.5511m55TROHOUT
273.1586BROCHE Brigit26BEL1:49:421:49:425:12 11.5468sen
274.1417VERLEYE Nathan46BEL1:49:421:49:425:12 11.5441m45LOMBARDSIJDE
275.1188FHERBERT Charlotte49BEL1:49:481:49:485:13 11.534v45IEPER
276.1045FCALLEEUW Raïsa45BEL1:49:521:49:525:13 11.525v40SINT-MICHIELS
277.1149DOOM Johan47BELCNH INDUSTRIAL 1:49:591:49:595:13 11.5142m45LEDEGEM
278.1275FPOLLENTIER Birgit28BEL1:50:121:50:125:14 11.4910damNIEUWPOORT
279.1269PAEPE Kris53BELCNH INDUSTRIAL 1:50:361:50:365:15 11.4530m50ZWEVEZELE
280.1181HAELEMEERSCH Rik47BELCNH INDUSTRIAL 1:50:361:50:365:15 11.4543m45RUDDERVOORDE
281.1660SCHEPERS Joeri45BEL1:50:381:50:385:15 11.4444m45
282.1613VANDERMEULEN Jan34BEL1:50:451:50:455:15 11.4369sen
283.1054CEUPPENS Patrick60BEL1:50:481:50:485:16 11.4212m55HALLE
284.1025BOSSUYT Yves41BEL1:50:501:50:505:16 11.4255m40SINT-ANDRIES
285.1603ADYNS Pierre33BEL1:50:531:50:535:16 11.4270sen
286.1568CURIEL Christian32BEL1:50:551:50:555:16 11.4171sen
287.1287RIGOLLE Kevin56BEL1:50:561:50:565:16 11.4113m55TORHOUT
288.1554ROGIERS Wim50BEL1:50:571:50:575:16 11.4131m50
289.1337VAN DE WALLE Mario41BELJCAALTER1:51:011:51:015:16 11.4056m40HANSBEKE
290.1117DENYS Jan47BEL1:51:041:51:045:16 11.4045m45ASSBROEK
291.1646PREYERS Harold36BEL1:51:151:51:155:17 11.3839m35
292.1641FVERCARRE Sofie41BEL1:51:171:51:175:17 11.376v40
293.1171FGIELEN Katrien38BELAZ SINT-REMBERT1:51:181:51:185:17 11.378v35TORHOUT
294.1260FMORTIER Charlotte29BEL1:51:211:51:215:17 11.3711damMENEN
295.1157DURNEZ Jurgen36BEL1:51:241:51:245:17 11.3640m35DIKSMUIDE
296.1086DE REU Marc60BEL1:51:251:51:255:17 11.3614m55MECHELEN
297.1091FDEBEUCKELAERE Marjolijn36BEL1:51:271:51:275:17 11.369v35LICHTERVELDE
298.1583VERHEYEN Joris37BEL1:51:301:51:305:18 11.3541m35
299.1695NEYENS Chris49BEL1:51:431:51:435:18 11.3346m45
300.1643DESMET Jimmy45BEL1:51:441:51:445:18 11.3357m40
301.1093FDEBOU Els46BELROAD RUNNERS TO1:51:441:51:445:18 11.335v45TORHOUT
302.1231LOUCHAERT Xavier43BELLOKO MOTIEF RUN1:51:461:51:465:18 11.3358m40IEPER
303.1021BLONTROCK Joost42BEL1:51:491:51:495:18 11.3259m40GISTEL
304.1677PICKAVET Geert46BEL1:51:521:51:525:19 11.3247m45
305.1443WAELKENS Manu51BELCM1:51:541:51:545:19 11.3132m50IEPER
306.1384FVANDERMEERSCH Dorine39BELCM1:51:591:51:595:19 11.3010v35VLAMERTINGE
307.1682SOL Rudy50BEL1:52:041:52:045:19 11.3048m45
308.1199JANSSOONE Arne33BEL1:52:071:52:075:19 11.2972senSINT-ANDRIES
309.1595TUNNEN Glenn30BEL1:52:161:52:165:20 11.2873sen
310.1008AMEYE Wouter24BEL1:52:171:52:175:20 11.2774senTORHOUT
311.1617LOUDEVILLE Rody42BEL1:52:191:52:195:20 11.2760m40
312.1625FLAMBRET Christelle40BEL1:52:201:52:205:20 11.2711v35
313.1626LEFEBVRE Pascal36BEL1:52:201:52:205:20 11.2742m35
314.1382VANDENHEEDE Jan36BELSTAD TORHOUT1:52:221:52:225:20 11.2743m35TORHOUT
315.1273FPOELAERT Katelijne55BEL1:52:241:52:245:20 11.261v55DE HAAN
316.1631NR 1631 XXX1:52:241:52:245:20 11.266xxx
317.1679ANECA Mathias30BEL1:52:511:52:515:21 11.2275sen
318.1302SERRY Jan56BELROAD RUNNERS TO1:53:101:53:105:22 11.1915m55TORHOUT
319.1123DEPUYDT Jan50BEL1:53:241:53:245:23 11.1649m45KORTEMARK
320.1567VAN DROOGENBROECK Tom34BEL1:53:281:53:285:23 11.1676sen
321.1163FAGOO Dirk52BEL1:53:321:53:325:23 11.1533m50HOOGSTADE
322.1342FVAN EESVELDE Dagmar40BEL1:53:331:53:335:23 11.1512v35ERTVELDE
323.1388VANDOOREN Henk54BEL1:53:341:53:345:23 11.1534m50WEVELGEM
324.1324THYS Gert36BEL1:53:361:53:365:24 11.1444m35TORHOUT
325.1147DOMBRECHT Jurgen39BEL1:53:361:53:365:24 11.1445m35VELDEGEM
326.1251MOELAERT Lorenz28BEL1:53:371:53:375:24 11.1477senBRUGGE
327.1180HAEGHEBAERT Luc54BEL1:53:381:53:385:24 11.1435m50LICHTERVELDE
328.1293RYNGAERT Frederic30BEL1:53:381:53:385:24 11.1478senZEDELGEM
329.1211FLAMBERT Nancy40BEL1:53:421:53:425:24 11.1313v35TORHOUT
330.1104DECOSTER Patrick56BELFLAC - FLANDERS1:53:431:53:435:24 11.1316m55IZEGEM
331.1584VANDAMME Gerdy37BEL1:53:461:53:465:24 11.1346m35
332.1304SEYNAEVE Luc56BELCM1:53:531:53:535:24 11.1217m55IZEGEM
333.1090DE WISPELAERE Herman39BEL1:53:551:53:555:24 11.1147m35ROESELARE
334.1692LAVENS Willy71BEL1:54:031:54:035:25 11.101m70
335.1390VANHAESEBROECK Henk47BELCM1:54:041:54:045:25 11.1050m45ZULTE
336.1097FDECLERCK Sofie27BELTTR1:54:051:54:055:25 11.1012damLICHTERVELDE
337.1406VÄTH Tim40BEL1:54:211:54:215:26 11.0748m35TIELT
338.1023BONNY Stijn35BEL1:54:241:54:245:26 11.0779senTORHOUT
339.1074FDE BOCK Josefien33BEL1:54:241:54:245:26 11.0613damTORHOUT
340.1582JAQUES Stijn33BEL1:54:361:54:365:26 11.0580sen
341.1598FRAES Els40BEL1:54:431:54:435:27 11.037v40
342.1585INNEGRAEVE Peter51BEL1:54:441:54:445:27 11.0336m50
343.1001DEPOORTER Thomas25BEL1:54:471:54:475:27 11.0381senZEDELGEM
344.1218LEPERCQ Andy43BELCM1:54:501:54:505:27 11.0261m40KUURNE
345.1234MAEKELBERG David41BEL1:54:531:54:535:27 11.0262m40ROESELARE
346.1307FSLABBINCK Erna55BELROAD RUNNERS TO1:55:021:55:025:28 11.004v50TORHOUT
347.1088DE VRIESE Eddy50BELTE CONNECTIVITY1:55:061:55:065:28 11.0051m45NEVELE
348.1197HUYLEBROECK Dajo29BEL1:55:111:55:115:28 10.9982senTORHOUT
349.1642MICHIELS Daniel58BEL1:55:141:55:145:28 10.9918m55
350.1107DEDEURWAERDER Bart31BEL1:55:181:55:185:28 10.9883senTORHOUT
351.1363VANCAUWENBERGHE Tibo30BEL1:55:191:55:195:28 10.9884senRUDDERVOORDE
352.1200JAQUES Hans51BELCM1:55:241:55:245:29 10.9737m50TORHOUT
353.1252MOENS Frédéric37BEL1:55:251:55:255:29 10.9749m35NOSSEGEM
354.1064COOLS Jan53BEL1:55:371:55:375:29 10.9538m50KOEKELARE
355.1663BOUCKELJOEN Dimitri36BEL1:55:551:55:555:30 10.9250m35LENDELEDE
356.1600LANCEL Eddy50BEL1:56:061:56:065:31 10.9052m45
357.1565VERSCHINGEL Dirk52BEL1:56:111:56:115:31 10.9039m50
358.1453WULLAERT Diego27BELCNH INDUSTRIAL 1:56:201:56:205:31 10.8885senIZEGEM
359.1593NOPPE Stijn33BEL1:56:281:56:285:32 10.8786sen
360.1250FMISSINNE Greet56BELLOOP JE FIT ZED1:56:351:56:355:32 10.862v55AARTRIJKE
361.1134DEVOLDER Jean Pierre62BEL1:56:461:56:465:33 10.841m60EERNEGEM
362.1285REMMERY Christoph47BEL1:56:481:56:485:33 10.8453m45HARELBEKE
363.1361VAN VOOREN Jeroen39BELTEAM PERFORM-IT1:56:511:56:515:33 10.8351m35WAARSCHOOT
364.1206KEYMEULEN Lieven44BEL1:56:521:56:525:33 10.8363m40TIELT
365.1551SABLON Jean-Sebastien38BEL1:56:591:56:595:33 10.8252m35
366.1550VANHOOREN Jeroen38BEL1:57:001:57:005:33 10.8253m35
367.1071FDE BAETS Sylvie36BEL1:57:021:57:025:33 10.8214v35BRUGGE
368.1072FDE BAETS Natalie37BEL1:57:031:57:035:33 10.8215v35LICHTERVELDE
369.1228LOOBUYCK Kathleen33BELABAV - ALGEMENE1:57:041:57:045:33 10.8187senSINT MICHIELS
370.1105DECREUS Danny53BELLOKOMOTIEF RUNN1:57:051:57:055:33 10.8140m50IEPER
371.1063CONSTANT Peter52BEL1:57:141:57:145:34 10.8041m50RUDDERVOORDE
372.1106FDECRU Lieve48BELMACW - MARATHON1:57:151:57:155:34 10.806v45WOUMEN
373.1195HUBRECHT Gerdy40BEL1:57:161:57:165:34 10.8064m40EERNEGEM
374.1651VEREENOOGHE Dominiek48BEL1:57:221:57:225:34 10.7954m45
375.1623VERSCHOOT Matthias27BEL1:57:231:57:235:34 10.7888sen
376.1624PARMENTIER Jonas22BEL1:57:231:57:235:34 10.7889sen
377.1576GABRIELS Thierry42BEL1:57:251:57:255:34 10.7865m40
378.1435FVERYSER Ann47BELIVAC1:57:311:57:315:35 10.777v45HULSTE
379.1392VANHECKE Rikkie56BELGAVERTRIMMERS1:57:331:57:335:35 10.7719m55BAVIKHOVE
380.1622FWYNSBERGHE Liesbet41BEL1:57:501:57:505:36 10.748v40
381.1670DE MAEYER Nick32BEL1:57:541:57:545:36 10.7490sen
382.1636NR 1636 XXX1:57:561:57:565:36 10.737xxx
383.1699VERHAEGHE Bart42BEL1:58:011:58:015:36 10.7366m40
384.1368VANDE WALLE Jochen39BEL1:58:231:58:235:37 10.6954m35AARTRIJKE
385.1383VANDEPITTE Bernard51BEL1:58:251:58:255:37 10.6942m50HOOGLEDE - GITS
386.1685DEPOUVRE Lode43BEL1:58:271:58:275:37 10.6967m40
387.1687MASYN Luc60BEL1:58:291:58:295:37 10.682m60
388.1022BOFFEL Stijn37BELCNH INDUSTRIAL 1:58:431:58:435:38 10.6655m35EERNEGEM
389.1265NOYEZ Stefaan45BEL1:58:471:58:475:38 10.6655m45IZEGEM
390.1279PREYERS Roy33BEL1:58:551:58:555:39 10.6591senHOUTHULST
391.1325TJOENS Yves47BEL1:59:061:59:065:39 10.6356m45BRUGGE
392.1113FDEMEULEMEESTER Jill38BEL1:59:131:59:135:40 10.6216v35OOSTENDE
393.1648VAN BOXTEL Bert30BEL1:59:171:59:175:40 10.6192sen
394.1596ROTTE Willem32BEL1:59:171:59:175:40 10.6193sen
395.1100DECLOEDT Kristof32BEL1:59:241:59:245:40 10.6094senZEDELGEM
396.1184FHARZ Christine47DEU1:59:241:59:245:40 10.608v45HAMBURG
397.1095FDEBUSSCHERE Nele34BEL1:59:261:59:265:40 10.6014damARDOOIE
398.1396VANHOUTTE Koen45BEL1:59:271:59:275:40 10.6057m45GITS
399.1398FVANLAUWE Sara36BEL1:59:281:59:285:40 10.6017v35STADEN
400.1069DAELMAN Jean-Claude47BEL1:59:341:59:345:41 10.5958m45ARDOOIE
401.1101DECOENE Kurt29BEL1:59:381:59:385:41 10.5895senKORTEMARK
402.1173GOBEYN Bjorn38BEL1:59:451:59:455:41 10.5756m35LICHTERVELDE
403.1235FMAERTENS Veerle45BEL1:59:461:59:465:41 10.579v40INGELMUNSTER
404.1122DEPOORTERE Ruben28BEL1:59:491:59:495:41 10.5796senROESELARE
405.1018FBILTERIJST Emma20BEL1:59:521:59:525:41 10.5615damGERAARDSBERGEN
406.1323FTESSE Veerle42BEL1:59:581:59:585:42 10.5510v40WEVELGEM
407.1420VERMEESCH Fernand67BEL1:59:581:59:585:42 10.551m65DE HAAN
408.1573DECLOEDT Johan47BEL1:59:581:59:585:42 10.5559m45
409.1190HOET Reinoud51BELCM1:59:591:59:595:42 10.5543m50GISTEL
410.1341FVAN EENOO Mieke30BEL2:00:152:00:155:42 10.5316damDIKSMUIDE
411.1312STEENKISTE Kristof41BEL2:00:182:00:185:43 10.5268m40TORHOUT
412.1204KETELS Kris50BEL2:00:262:00:265:43 10.5144m50DIKSMUIDE
413.1039BULCKE Alexander24BEL2:00:272:00:275:43 10.5197senDIKSMUIDE
414.1308SLOS Hein42BEL2:00:352:00:355:43 10.5069m40OOSTROZEBEKE
415.1129DEVELTER Ulrich41BEL2:00:432:00:435:44 10.4970m40TORHOUT
416.1333VAN COLEN Kevin33BEL2:00:432:00:435:44 10.4998senTORHOUT
417.1011BAERT Fre42BEL2:00:442:00:445:44 10.4971m40TORHOUT
418.1290FROTSAERT Martine52BEL2:00:472:00:475:44 10.485v50OOSTENDE
419.1175FGOEMINNE Karen32BELJC AALTER2:00:482:00:485:44 10.4817damRUISELEDE
420.1210LAHOUTTE Geert54BEL2:00:512:00:515:44 10.4745m50IEPER
421.1042BUYSE Christoph28BEL2:00:552:00:555:44 10.4799senBRUGGE
422.1041BUYSE Jean-Pierre60BEL2:01:052:01:055:45 10.4620m55BRUGGE
423.1365FVANCRAEYENEST Elke35BELTE CONNECTIVITY2:01:152:01:155:45 10.4418damTORHOUT
424.1366VANCRAEYENEST Pierrot60BELTE CONNECTIVITY2:01:162:01:165:45 10.4421m55LICHTERVELDE
425.1017BIESBROUCK Tim21BEL2:01:222:01:225:46 10.43100senTORHOUT
426.1052FCATTECEUR Judy26BEL2:01:222:01:225:46 10.4319damTORHOUT
427.1166FGARWIG Emmy33BEL2:01:242:01:245:46 10.4320damKORTEMARK
428.1060COBBAERT Chris49BEL2:01:392:01:395:46 10.4160m45BRUGGE
429.1587SCHARLAEKEN Marc52BEL2:01:402:01:405:46 10.4146m50
430.1238FMAET Annelies35BELPROVINCIE W-VL2:01:482:01:485:47 10.3921damLICHTERVELDE
431.1571DEVRIESE Nicolas23BEL2:02:082:02:085:48 10.37101sen
432.1354VAN POUCKE Bjorn39BEL2:02:142:02:145:48 10.3657m35ICHTEGEM
433.1263NOLF Pol64BELROAD RUNNERS TO2:02:282:02:285:49 10.343m60TORHOUT
434.1004ADAM Robert61BELROAD RUNNERS TO2:02:282:02:285:49 10.344m60AARTRIJKE
435.1385VANDEVELDE Henk34BEL2:02:292:02:295:49 10.34102senRUDDERVOORDE
436.1084FDE MEULENAERE Leen35BEL2:02:402:02:405:49 10.3222damOESELGEM
437.1178FGREGORI Florence28BEL2:02:432:02:435:49 10.3223damJABBEKE
438.1027BOUCHAERT Ollivier36BEL2:02:502:02:505:50 10.3158m35MOORSLEDE
439.1415VERHOYE Dieter32BEL2:02:512:02:515:50 10.31103senOOSTKAMP
440.1089DE VUYST Ruben37BEL2:03:072:03:075:51 10.2859m35LICHTERVELDE
441.1697FVANHOVE Sabine45BEL2:03:252:03:255:51 10.269v45
442.1146DIERENDONCK Harald53BEL2:03:302:03:305:52 10.2547m50BRUGGE
443.1241MANHOUT Eric67BELCM2:03:332:03:335:52 10.252m65RUDDERVOORDE
444.1031BRASSAERT Andre70BELTORRAC TORHOUT2:03:372:03:375:52 10.243m65KORTEMARK
445.1099FDECLERCQ Nathalie42BEL2:03:442:03:445:52 10.2311v40HOOGLEDE
446.1404VANTHUYNE Kris50BEL2:04:002:04:005:53 10.2148m50ASSEBROEK
447.1222FLEYS Joke32BEL2:04:032:04:035:53 10.2024damARDOOIE
448.1569DELAMEILLEURE Tim30BEL2:04:042:04:045:53 10.20104sen
449.1570BEHAEG Pietjan28BEL2:04:052:04:055:53 10.20105sen
450.1394VANHELSUWE Gauthier49BELCM2:04:072:04:075:53 10.2061m45BLANKENBERGE
451.1085DE RAMMELAERE Stijn40BEL2:04:242:04:245:54 10.1860m35DRONGEN
452.1024BOSMANS Kris29BEL2:04:462:04:465:55 10.15106senKLABBEEK
453.1561VAN DERAA Kristoffel35BEL2:04:462:04:465:55 10.1561m35
454.1108DEJONGHE Timon47BEL2:04:482:04:485:55 10.1462m45WEVELGEM
455.1233MAEKELBERG Alexander31BEL2:04:492:04:495:55 10.14107senKORTEMARK
456.1601FRENIER Hilde50BEL2:04:522:04:525:56 10.1410v45
457.1413FVERHEIRE Isabelle40BELPROVINCIE W-VL2:04:532:04:535:56 10.1412v40BRUGGE
458.1633NR 1633 XXX2:05:012:05:015:56 10.138xxx
459.1162FERVINCK Barbara40BELCM2:05:102:05:105:56 10.1113v40WEVELGEM
460.1348VAN HOORNE Wouter33BEL2:05:152:05:155:57 10.11108senWEVELGEM
461.1034BROUCKAERT Danny43BELKM TORHOUT2:05:182:05:185:57 10.1072m40VELDEGEM
462.1313FSTES Isabelle45BELKM TORHOUT2:05:182:05:185:57 10.1011v45RUDDERVOORDE
463.1564CNUDDE Lode43BEL2:05:522:05:525:58 10.0673m40
464.1321FSYS Katia43BEL2:05:572:05:575:59 10.0514v40OOSTKAMP
465.1125FDERUWE Nadine51BEL2:05:572:05:575:59 10.056v50OOSTKAMP
466.1580FWELVAERT Nele47BEL2:06:072:06:075:59 10.0412v45
467.1367VANDAMME Bart61BELROAD RUNNERS TO2:06:082:06:085:59 10.045m60TORHOUT
468.1226FLIPS Els38BELTEAM PERFORM-IT2:06:182:06:186:00 10.0218v35WAARSCHOOT
469.1349FVAN KERCKVOORDE Sofie33BELTEAM PERFORM-IT2:06:182:06:186:00 10.0225damLOVENDEGEM
470.1693DECHERF Patrick52BEL2:06:252:06:256:00 10.0149m50
471.1578SENAEVE Nicholas29BEL2:06:412:06:416:01 9.99109sen
472.1414FVERHOEVEN-WITTOCK Ingrid63BELCM2:06:452:06:456:01 9.991v60MEERLE
473.1112DEMAEGDT Paul56BEL2:06:492:06:496:01 9.9822m55DE HAAN
474.1632NR 1632 XXX2:07:152:07:156:02 9.959xxx
475.1143D'HAENE Jorn36BEL2:07:172:07:176:02 9.9562m35ROESELARE
476.1430FVERSTRAETE Natascha33BEL2:07:242:07:246:03 9.9426damSCHUIFERSKAPELLE
477.1328VAN ACKERE Claude41BEL2:07:262:07:266:03 9.9374m40RUDDERVOORDE
478.1581TRIO Ditri40BEL2:07:262:07:266:03 9.9363m35
479.1048CANTAERT Joris27BELASVO - ATLETIEK2:07:292:07:296:03 9.93110senOUDENAARDE
480.1689GRYP Pascal39BEL2:07:432:07:436:04 9.9164m35
481.1254FMOERMAN Laura25BEL2:07:442:07:446:04 9.9127damGITS
482.1373VANDEN BILCKE Timo37BEL2:07:512:07:516:04 9.9065m35AARTRIJKE
483.1345VAN GYSEGEM Thomas37BEL2:08:222:08:226:06 9.8666m35LEDE
484.1645AELVOET Michel54BEL2:08:242:08:246:06 9.8650m50
485.1440FVLIETINCK Nathalie40BELBEISBROEKLOPERS2:08:252:08:256:06 9.8619v35SINT-ANDRIES
486.1015BEERLAND Kurt45BEL2:08:542:08:546:07 9.8275m40VLAMERTINGE
487.1454FYSERBYT Mia53BEL2:08:582:08:586:07 9.827v50ZWEVEGEM
488.1448WENTEIN Gijs29BEL2:09:062:09:066:08 9.81111senBRUGGE
489.1272FPLUVIER Nathalie43BEL2:09:102:09:106:08 9.8015v40ZERKEGEM
490.1002FACDA Karen40BEL2:09:102:09:106:08 9.8020v35ZANDVOORDE
491.1114FDEMEULENAERE Annick38BEL2:09:192:09:196:08 9.7921v35ROESELARE
492.1353VAN NUFFEL Mathias28BEL2:09:332:09:336:09 9.77112senDENDERMONDE
493.1649WILLEMS Alain51BEL2:09:362:09:366:09 9.7751m50
494.1650FCOLPAERT Nadia39BEL2:09:362:09:366:09 9.7722v35
495.1614VANGHELUWE Didier50FRA2:10:052:10:056:10 9.7352m50
496.1270PASSCHYN Andy40BEL2:11:002:11:006:13 9.6667m35DRONGEN
497.1560PERSYN Dieter38BEL2:11:292:11:296:14 9.6368m35
498.1433FVERSTRYNGE Martina57BELBEHO - BEVERHOU2:11:312:11:316:15 9.633v55BEERNEM
499.1446FWAUTERS-VAN DER TAELEN Lien50BEL2:11:502:11:506:15 9.608v50GIJZEGEM
500.1145D'HEERE Bart39BEL2:11:562:11:566:16 9.6069m35LEKE
DNF: did not finish; DSQ: disqualified; Speed in km/h
Page: [1] 2